createdAt,value
2019-03-18T00:00:56.601Z,5.50
2019-03-18T00:03:27.455Z,5.50
2019-03-18T00:05:58.233Z,5.57
2019-03-18T00:08:29.033Z,5.48
2019-03-18T00:10:59.762Z,5.51
2019-03-18T00:13:30.602Z,5.60
2019-03-18T00:16:01.426Z,5.55
2019-03-18T00:18:32.300Z,5.52
2019-03-18T00:21:03.100Z,5.56
2019-03-18T00:23:33.937Z,5.45
2019-03-18T00:26:04.664Z,5.40
2019-03-18T00:28:35.411Z,5.48
2019-03-18T00:31:06.245Z,5.43
2019-03-18T00:33:37.092Z,5.49
2019-03-18T00:36:07.910Z,5.44
2019-03-18T00:38:38.637Z,5.43
2019-03-18T00:41:09.412Z,5.48
2019-03-18T00:43:40.252Z,5.54
2019-03-18T00:46:11.046Z,5.47
2019-03-18T00:48:41.887Z,5.43
2019-03-18T00:51:12.735Z,5.41
2019-03-18T00:53:43.106Z,5.44
2019-03-18T00:56:13.888Z,5.46
2019-03-18T00:58:44.640Z,5.42
2019-03-18T01:01:15.301Z,5.39
2019-03-18T01:03:46.086Z,5.38
2019-03-18T01:06:16.919Z,5.39
2019-03-18T01:08:47.659Z,5.40
2019-03-18T01:11:18.508Z,5.46
2019-03-18T01:13:49.321Z,5.46
2019-03-18T01:16:20.059Z,5.37
2019-03-18T01:18:50.793Z,5.34
2019-03-18T01:21:21.631Z,5.41
2019-03-18T01:23:52.361Z,5.34
2019-03-18T01:26:23.323Z,5.30
2019-03-18T01:28:54.167Z,5.35
2019-03-18T01:31:25.006Z,5.34
2019-03-18T01:33:55.847Z,5.29
2019-03-18T01:36:26.269Z,5.37
2019-03-18T01:38:56.970Z,5.33
2019-03-18T01:41:27.726Z,5.24
2019-03-18T01:43:58.574Z,5.32
2019-03-18T01:46:29.316Z,5.09
2019-03-18T01:49:00.132Z,5.15
2019-03-18T01:51:30.969Z,5.16
2019-03-18T01:54:01.551Z,5.04
2019-03-18T01:56:32.434Z,4.92
2019-03-18T01:59:03.355Z,4.88
2019-03-18T02:01:34.018Z,4.91
2019-03-18T02:04:04.855Z,4.88
2019-03-18T02:06:35.586Z,4.85
2019-03-18T02:09:06.672Z,4.83
2019-03-18T02:11:37.467Z,4.82
2019-03-18T02:14:08.312Z,4.80
2019-03-18T02:16:39.247Z,4.70
2019-03-18T02:19:09.974Z,4.68
2019-03-18T02:21:40.804Z,4.67
2019-03-18T02:24:11.183Z,4.68
2019-03-18T02:26:42.069Z,4.63
2019-03-18T02:29:12.921Z,4.64
2019-03-18T02:31:43.742Z,4.59
2019-03-18T02:34:14.779Z,4.50
2019-03-18T02:36:45.632Z,4.56
2019-03-18T02:39:16.357Z,4.56
2019-03-18T02:41:47.092Z,4.50
2019-03-18T02:44:17.819Z,4.49
2019-03-18T02:46:48.545Z,4.51
2019-03-18T02:49:19.294Z,4.45
2019-03-18T02:51:52.921Z,4.47
2019-03-18T02:54:22.624Z,4.40
2019-03-18T02:56:53.435Z,4.44
2019-03-18T02:59:24.187Z,4.41
2019-03-18T03:01:55.127Z,4.41
2019-03-18T03:04:25.534Z,4.40
2019-03-18T03:06:56.284Z,4.45
2019-03-18T03:09:26.797Z,4.46
2019-03-18T03:11:57.320Z,4.38
2019-03-18T03:14:28.165Z,4.34
2019-03-18T03:16:58.999Z,4.33
2019-03-18T03:19:29.849Z,4.35
2019-03-18T03:22:00.786Z,4.42
2019-03-18T03:24:31.602Z,4.38
2019-03-18T03:27:02.460Z,4.32
2019-03-18T03:29:33.181Z,4.28
2019-03-18T03:32:04.019Z,4.41
2019-03-18T03:34:34.857Z,4.43
2019-03-18T03:37:05.604Z,4.38
2019-03-18T03:39:36.422Z,4.55
2019-03-18T03:42:07.279Z,4.58
2019-03-18T03:44:38.125Z,4.42
2019-03-18T03:47:08.512Z,4.41
2019-03-18T03:49:40.106Z,4.49
2019-03-18T03:52:10.908Z,4.46
2019-03-18T03:54:41.760Z,4.46
2019-03-18T03:57:12.263Z,4.47
2019-03-18T03:59:42.941Z,4.48
2019-03-18T04:02:13.640Z,4.44
2019-03-18T04:04:44.375Z,4.49
2019-03-18T04:07:15.224Z,4.51
2019-03-18T04:09:46.049Z,4.44
2019-03-18T04:12:16.790Z,4.48
2019-03-18T04:14:47.520Z,4.46
2019-03-18T04:17:18.242Z,4.40
2019-03-18T04:19:48.995Z,4.45
2019-03-18T04:22:19.723Z,4.47
2019-03-18T04:24:50.216Z,4.42
2019-03-18T04:27:24.581Z,4.34
2019-03-18T04:29:53.555Z,4.37
2019-03-18T04:32:24.297Z,4.63
2019-03-18T04:34:55.134Z,4.54
2019-03-18T04:37:25.524Z,4.52
2019-03-18T04:39:56.296Z,4.58
2019-03-18T04:42:27.069Z,4.68
2019-03-18T04:44:57.484Z,4.67
2019-03-18T04:47:28.290Z,4.64
2019-03-18T04:49:59.169Z,4.83
2019-03-18T04:52:30.074Z,4.68
2019-03-18T04:55:00.799Z,4.66
2019-03-18T04:57:31.559Z,4.72
2019-03-18T05:00:02.402Z,4.84
2019-03-18T05:02:32.877Z,4.84
2019-03-18T05:05:03.837Z,4.94
2019-03-18T05:07:34.675Z,4.76
2019-03-18T05:10:10.219Z,4.80
2019-03-18T05:12:41.077Z,4.94
2019-03-18T05:15:12.036Z,4.88
2019-03-18T05:17:42.833Z,4.92
2019-03-18T05:20:13.246Z,4.88
2019-03-18T05:22:44.200Z,4.88
2019-03-18T05:25:15.057Z,5.03
2019-03-18T05:27:45.884Z,4.88
2019-03-18T05:30:16.634Z,4.82
2019-03-18T05:32:47.470Z,4.88
2019-03-18T05:35:18.296Z,4.72
2019-03-18T05:37:49.917Z,4.78
2019-03-18T05:40:20.813Z,4.82
2019-03-18T05:42:51.313Z,4.88
2019-03-18T05:45:22.272Z,5.00
2019-03-18T05:47:53.117Z,4.89
2019-03-18T05:50:23.925Z,4.88
2019-03-18T05:52:54.665Z,4.88
2019-03-18T05:55:25.363Z,4.99
2019-03-18T05:57:55.763Z,5.11
2019-03-18T06:00:28.551Z,4.99
2019-03-18T06:02:59.755Z,4.89
2019-03-18T06:05:30.692Z,4.98
2019-03-18T06:08:01.450Z,5.08
2019-03-18T06:10:32.388Z,4.96
2019-03-18T06:13:03.345Z,4.96
2019-03-18T06:15:34.237Z,4.89
2019-03-18T06:18:05.115Z,5.10
2019-03-18T06:20:38.403Z,4.94
2019-03-18T06:23:09.221Z,4.95
2019-03-18T06:25:40.135Z,5.08
2019-03-18T06:28:12.553Z,5.08
2019-03-18T06:30:43.361Z,5.05
2019-03-18T06:33:14.098Z,5.09
2019-03-18T06:35:45.571Z,5.13
2019-03-18T06:38:16.470Z,5.11
2019-03-18T06:40:47.317Z,5.22
2019-03-18T06:43:18.177Z,5.24
2019-03-18T06:45:48.991Z,5.35
2019-03-18T06:48:19.740Z,5.36
2019-03-18T06:50:50.460Z,5.37
2019-03-18T06:53:21.300Z,5.29
2019-03-18T06:55:52.192Z,5.44
2019-03-18T06:58:22.880Z,5.39
2019-03-18T07:00:53.599Z,5.34
2019-03-18T07:03:24.436Z,5.46
2019-03-18T07:05:55.284Z,5.43
2019-03-18T07:08:26.103Z,5.45
2019-03-18T07:10:56.847Z,5.42
2019-03-18T07:13:27.796Z,5.51
2019-03-18T07:16:00.162Z,5.63
2019-03-18T07:18:30.923Z,5.66
2019-03-18T07:21:01.814Z,5.70
2019-03-18T07:23:32.553Z,5.66
2019-03-18T07:26:03.419Z,5.64
2019-03-18T07:28:34.374Z,5.72
2019-03-18T07:31:05.188Z,5.60
2019-03-18T07:33:35.724Z,5.60
2019-03-18T07:36:06.602Z,5.80
2019-03-18T07:38:37.119Z,5.84
2019-03-18T07:41:07.911Z,5.83
2019-03-18T07:43:38.647Z,5.94
2019-03-18T07:46:09.530Z,5.96
2019-03-18T07:48:40.354Z,5.98
2019-03-18T07:51:11.130Z,7.85
2019-03-18T07:53:41.932Z,8.79
2019-03-18T07:56:12.336Z,9.73
2019-03-18T07:58:43.170Z,10.04
2019-03-18T08:01:16.991Z,10.50
2019-03-18T08:03:47.816Z,10.20
2019-03-18T08:06:18.642Z,8.66
2019-03-18T08:08:49.462Z,7.66
2019-03-18T08:11:20.339Z,6.96
2019-03-18T08:13:51.190Z,6.82
2019-03-18T08:16:21.633Z,6.66
2019-03-18T08:18:52.536Z,6.54
2019-03-18T08:21:23.020Z,6.51
2019-03-18T08:23:53.803Z,6.44
2019-03-18T08:26:27.083Z,6.48
2019-03-18T08:28:57.087Z,6.60
2019-03-18T08:31:27.493Z,6.59
2019-03-18T08:33:58.372Z,6.58
2019-03-18T08:36:29.183Z,6.70
2019-03-18T08:39:00.046Z,6.54
2019-03-18T08:41:30.890Z,6.70
2019-03-18T08:44:01.718Z,6.69
2019-03-18T08:46:32.524Z,6.80
2019-03-18T08:49:03.408Z,6.71
2019-03-18T08:51:34.302Z,6.87
2019-03-18T08:54:05.360Z,6.85
2019-03-18T08:56:39.175Z,6.88
2019-03-18T08:59:10.023Z,6.87
2019-03-18T09:01:40.847Z,6.78
2019-03-18T09:04:11.578Z,6.78
2019-03-18T09:06:41.955Z,6.72
2019-03-18T09:09:12.818Z,6.56
2019-03-18T09:11:43.584Z,6.64
2019-03-18T09:14:14.286Z,6.60
2019-03-18T09:16:45.029Z,6.51
2019-03-18T09:19:16.514Z,6.60
2019-03-18T09:21:47.452Z,6.65
2019-03-18T09:24:18.273Z,6.58
2019-03-18T09:27:01.466Z,6.54
2019-03-18T09:29:21.282Z,6.70
2019-03-18T09:31:52.524Z,6.87
2019-03-18T09:34:23.336Z,6.94
2019-03-18T09:36:54.172Z,6.96
2019-03-18T09:39:25.325Z,7.24
2019-03-18T09:41:56.160Z,7.58
2019-03-18T09:44:27.264Z,7.66
2019-03-18T09:46:58.255Z,7.50
2019-03-18T09:49:28.986Z,7.56
2019-03-18T09:51:59.813Z,7.30
2019-03-18T09:54:30.625Z,7.12
2019-03-18T09:57:01.428Z,7.28
2019-03-18T09:59:32.344Z,7.24
2019-03-18T10:02:03.171Z,7.16
2019-03-18T10:04:34.040Z,7.26
2019-03-18T10:07:04.841Z,7.16
2019-03-18T10:09:35.803Z,6.94
2019-03-18T10:12:06.677Z,6.98
2019-03-18T10:14:37.648Z,7.00
2019-03-18T10:17:09.853Z,7.16
2019-03-18T10:19:40.856Z,7.14
2019-03-18T10:22:11.590Z,7.30
2019-03-18T10:24:42.448Z,7.08
2019-03-18T10:27:13.163Z,7.06
2019-03-18T10:29:43.919Z,7.03
2019-03-18T10:32:14.657Z,6.94
2019-03-18T10:34:45.466Z,7.10
2019-03-18T10:37:16.325Z,7.21
2019-03-18T10:39:47.027Z,7.66
2019-03-18T10:42:17.411Z,7.89
2019-03-18T10:44:48.300Z,7.88
2019-03-18T10:47:19.044Z,7.94
2019-03-18T10:49:49.827Z,7.87
2019-03-18T10:52:20.745Z,7.84
2019-03-18T10:54:51.630Z,7.86
2019-03-18T10:57:22.011Z,7.82
2019-03-18T10:59:52.801Z,7.77
2019-03-18T11:02:23.567Z,7.71
2019-03-18T11:04:54.404Z,7.49
2019-03-18T11:07:25.211Z,7.36
2019-03-18T11:09:55.737Z,7.00
2019-03-18T11:12:26.570Z,6.84
2019-03-18T11:14:57.440Z,6.64
2019-03-18T11:17:28.232Z,6.56
2019-03-18T11:19:59.169Z,6.50
2019-03-18T11:22:29.744Z,6.40
2019-03-18T11:25:00.443Z,6.35
2019-03-18T11:27:31.181Z,6.50
2019-03-18T11:30:01.935Z,6.52
2019-03-18T11:32:32.775Z,6.66
2019-03-18T11:35:03.602Z,6.91
2019-03-18T11:37:33.992Z,7.30
2019-03-18T11:40:11.103Z,7.58
2019-03-18T11:42:42.775Z,7.65
2019-03-18T11:45:14.937Z,7.96
2019-03-18T11:47:45.687Z,7.90
2019-03-18T11:50:20.519Z,7.94
2019-03-18T11:52:51.333Z,8.12
2019-03-18T11:55:24.517Z,8.32
2019-03-18T11:57:55.485Z,8.41
2019-03-18T12:00:26.796Z,8.46
2019-03-18T12:02:57.256Z,8.38
2019-03-18T12:05:28.784Z,8.29
2019-03-18T12:07:59.883Z,8.26
2019-03-18T12:10:30.868Z,8.40
2019-03-18T12:13:02.816Z,8.43
2019-03-18T12:15:36.378Z,8.70
2019-03-18T12:18:06.763Z,8.86
2019-03-18T12:20:38.715Z,9.00
2019-03-18T12:23:10.424Z,9.06
2019-03-18T12:25:42.312Z,9.12
2019-03-18T12:28:13.742Z,9.24
2019-03-18T12:30:45.585Z,9.08
2019-03-18T12:33:17.167Z,9.00
2019-03-18T12:35:49.600Z,8.88
2019-03-18T12:38:21.328Z,8.69
2019-03-18T12:40:52.097Z,8.52
2019-03-18T12:43:24.499Z,7.85
2019-03-18T12:45:55.194Z,7.49
2019-03-18T12:48:25.932Z,7.09
2019-03-18T12:50:56.928Z,7.12
2019-03-18T12:53:27.935Z,7.16
2019-03-18T12:55:58.642Z,6.99
2019-03-18T12:58:29.516Z,6.98
2019-03-18T13:01:11.892Z,7.07
2019-03-18T13:03:32.599Z,7.08
2019-03-18T13:06:03.417Z,7.00
2019-03-18T13:08:34.183Z,7.02
2019-03-18T13:11:05.025Z,7.14
2019-03-18T13:13:35.842Z,7.21
2019-03-18T13:16:06.563Z,7.32
2019-03-18T13:18:37.305Z,7.43
2019-03-18T13:21:08.474Z,7.56
2019-03-18T13:23:39.379Z,7.60
2019-03-18T13:26:10.103Z,7.72
2019-03-18T13:28:40.938Z,7.80
2019-03-18T13:31:11.671Z,8.00
2019-03-18T13:33:42.439Z,7.99
2019-03-18T13:36:14.700Z,8.11
2019-03-18T13:38:45.533Z,8.16
2019-03-18T13:41:16.375Z,8.03
2019-03-18T13:43:47.232Z,8.10
2019-03-18T13:46:18.671Z,7.88
2019-03-18T13:48:49.205Z,7.56
2019-03-18T13:51:21.211Z,7.32
2019-03-18T13:53:52.223Z,6.48
2019-03-18T13:56:23.111Z,6.16
2019-03-18T13:58:53.636Z,6.24
2019-03-18T14:01:27.031Z,6.27
2019-03-18T14:03:57.504Z,6.24
2019-03-18T14:06:28.323Z,6.26
2019-03-18T14:08:59.172Z,6.39
2019-03-18T14:11:30.093Z,6.28
2019-03-18T14:14:01.108Z,6.44
2019-03-18T14:16:31.973Z,6.62
2019-03-18T14:19:02.960Z,6.68
2019-03-18T14:21:33.908Z,6.74
2019-03-18T14:24:04.722Z,6.83
2019-03-18T14:26:35.208Z,6.96
2019-03-18T14:29:05.739Z,7.02
2019-03-18T14:31:36.487Z,7.13
2019-03-18T14:34:07.183Z,7.27
2019-03-18T14:36:37.936Z,7.22
2019-03-18T14:39:08.796Z,7.31
2019-03-18T14:41:39.222Z,7.28
2019-03-18T14:44:10.041Z,7.44
2019-03-18T14:46:40.900Z,7.42
2019-03-18T14:49:11.826Z,7.58
2019-03-18T14:51:45.984Z,7.59
2019-03-18T14:54:14.916Z,7.59
2019-03-18T14:56:45.762Z,7.75
2019-03-18T14:59:24.500Z,7.56
2019-03-18T15:01:55.078Z,7.36
2019-03-18T15:04:25.593Z,7.31
2019-03-18T15:06:56.373Z,7.32
2019-03-18T15:09:27.108Z,7.41
2019-03-18T15:11:57.935Z,7.34
2019-03-18T15:14:28.789Z,7.38
2019-03-18T15:16:59.637Z,7.51
2019-03-18T15:19:30.373Z,7.76
2019-03-18T15:22:02.836Z,7.86
2019-03-18T15:24:33.800Z,7.97
2019-03-18T15:27:04.824Z,7.84
2019-03-18T15:29:38.312Z,7.88
2019-03-18T15:32:09.155Z,7.74
2019-03-18T15:34:39.866Z,7.62
2019-03-18T15:37:13.230Z,7.63
2019-03-18T15:39:44.053Z,7.36
2019-03-18T15:42:17.425Z,7.32
2019-03-18T15:44:50.961Z,7.26
2019-03-18T15:47:21.848Z,7.14
2019-03-18T15:49:55.514Z,6.96
2019-03-18T15:52:26.071Z,6.91
2019-03-18T15:54:56.851Z,6.93
2019-03-18T15:57:29.806Z,7.02
2019-03-18T16:00:00.190Z,6.79
2019-03-18T16:02:30.883Z,6.81
2019-03-18T16:05:01.592Z,6.79
2019-03-18T16:07:32.428Z,6.68
2019-03-18T16:10:03.671Z,6.62
2019-03-18T16:12:34.525Z,6.72
2019-03-18T16:15:07.731Z,6.67
2019-03-18T16:17:41.455Z,6.68
2019-03-18T16:20:20.028Z,6.79
2019-03-18T16:22:50.749Z,6.72
2019-03-18T16:25:21.628Z,6.70
2019-03-18T16:27:52.436Z,6.82
2019-03-18T16:30:23.298Z,6.80
2019-03-18T16:32:54.168Z,6.90
2019-03-18T16:35:24.603Z,6.92
2019-03-18T16:37:55.373Z,6.81
2019-03-18T16:40:26.247Z,6.79
2019-03-18T16:42:56.957Z,6.88
2019-03-18T16:45:27.394Z,6.74
2019-03-18T16:47:58.203Z,6.76
2019-03-18T16:50:30.777Z,6.69
2019-03-18T16:53:01.619Z,6.58
2019-03-18T16:55:32.362Z,6.56
2019-03-18T16:58:06.155Z,6.48
2019-03-18T17:00:36.898Z,6.58
2019-03-18T17:03:07.766Z,6.69
2019-03-18T17:05:38.505Z,6.64
2019-03-18T17:08:09.438Z,6.56
2019-03-18T17:10:43.073Z,6.48
2019-03-18T17:13:14.047Z,6.60
2019-03-18T17:15:44.917Z,6.47
2019-03-18T17:18:17.889Z,6.36
2019-03-18T17:20:48.927Z,6.16
2019-03-18T17:23:19.852Z,5.70
2019-03-18T17:25:50.306Z,5.58
2019-03-18T17:28:21.117Z,5.40
2019-03-18T17:30:51.960Z,5.04
2019-03-18T17:33:22.800Z,4.89
2019-03-18T17:35:53.520Z,4.77
2019-03-18T17:38:24.394Z,4.71
2019-03-18T17:40:55.192Z,4.56
2019-03-18T17:43:26.047Z,4.55
2019-03-18T17:45:56.868Z,4.56
2019-03-18T17:48:27.641Z,4.55
2019-03-18T17:50:58.436Z,4.41
2019-03-18T17:53:28.866Z,4.47
2019-03-18T17:55:59.675Z,4.44
2019-03-18T17:58:30.537Z,4.51
2019-03-18T18:01:03.152Z,4.54
2019-03-18T18:03:34.054Z,4.52
2019-03-18T18:06:14.725Z,4.62
2019-03-18T18:08:45.597Z,4.70
2019-03-18T18:11:16.446Z,4.78
2019-03-18T18:13:47.371Z,4.84
2019-03-18T18:16:18.300Z,4.82
2019-03-18T18:18:49.211Z,4.90
2019-03-18T18:21:19.983Z,4.98
2019-03-18T18:23:50.860Z,5.02
2019-03-18T18:26:21.925Z,5.04
2019-03-18T18:28:52.786Z,4.96
2019-03-18T18:31:23.537Z,4.92
2019-03-18T18:33:54.357Z,4.83
2019-03-18T18:36:25.487Z,4.94
2019-03-18T18:38:56.459Z,4.88
2019-03-18T18:41:27.165Z,5.02
2019-03-18T18:43:58.014Z,5.11
2019-03-18T18:46:28.441Z,5.04
2019-03-18T18:48:59.260Z,4.96
2019-03-18T18:51:29.988Z,5.12
2019-03-18T18:54:03.469Z,5.00
2019-03-18T18:56:33.564Z,5.06
2019-03-18T18:59:04.352Z,5.19
2019-03-18T19:01:37.848Z,5.12
2019-03-18T19:04:10.225Z,5.14
2019-03-18T19:06:41.065Z,5.07
2019-03-18T19:09:13.505Z,5.20
2019-03-18T19:11:44.366Z,5.16
2019-03-18T19:14:15.201Z,5.14
2019-03-18T19:16:46.147Z,5.06
2019-03-18T19:19:16.974Z,5.06
2019-03-18T19:21:48.118Z,5.14
2019-03-18T19:24:18.970Z,5.07
2019-03-18T19:26:49.359Z,5.12
2019-03-18T19:29:20.171Z,5.02
2019-03-18T19:31:50.956Z,4.99
2019-03-18T19:34:21.704Z,5.02
2019-03-18T19:36:53.199Z,5.01
2019-03-18T19:39:48.509Z,5.02
2019-03-18T19:42:19.285Z,4.90
2019-03-18T19:44:53.444Z,4.92
2019-03-18T19:47:24.500Z,5.02
2019-03-18T19:49:55.924Z,4.94
2019-03-18T19:52:26.723Z,5.00
2019-03-18T19:54:57.198Z,4.99
2019-03-18T19:57:27.979Z,4.90
2019-03-18T20:00:00.000Z,5.03
2019-03-18T20:02:31.428Z,4.96
2019-03-18T20:05:14.353Z,4.93
2019-03-18T20:07:36.462Z,4.95
2019-03-18T20:10:15.445Z,4.88
2019-03-18T20:12:45.958Z,4.90
2019-03-18T20:15:18.019Z,4.91
2019-03-18T20:17:48.823Z,4.84
2019-03-18T20:20:21.613Z,4.85
2019-03-18T20:22:52.575Z,4.76
2019-03-18T20:25:23.499Z,4.79
2019-03-18T20:27:54.327Z,4.80
2019-03-18T20:30:25.189Z,4.88
2019-03-18T20:32:55.785Z,4.70
2019-03-18T20:35:26.622Z,4.62
2019-03-18T20:37:57.482Z,4.76
2019-03-18T20:40:28.300Z,4.63
2019-03-18T20:43:02.543Z,4.60
2019-03-18T20:45:33.368Z,4.63
2019-03-18T20:48:04.303Z,4.66
2019-03-18T20:50:35.128Z,4.52
2019-03-18T20:53:06.002Z,4.70
2019-03-18T20:55:37.004Z,4.74
2019-03-18T20:58:11.122Z,4.72
2019-03-18T21:00:42.183Z,4.76
2019-03-18T21:03:12.999Z,4.70
2019-03-18T21:05:44.921Z,4.61
2019-03-18T21:08:15.693Z,4.68
2019-03-18T21:10:48.059Z,4.70
2019-03-18T21:13:18.796Z,4.60
2019-03-18T21:15:49.666Z,4.57
2019-03-18T21:18:20.649Z,4.62
2019-03-18T21:20:51.295Z,4.58
2019-03-18T21:23:22.147Z,4.55
2019-03-18T21:25:54.520Z,4.56
2019-03-18T21:28:25.469Z,4.54
2019-03-18T21:30:59.280Z,4.43
2019-03-18T21:33:33.426Z,4.52
2019-03-18T21:36:04.308Z,4.54
2019-03-18T21:38:37.750Z,4.45
2019-03-18T21:41:08.714Z,4.50
2019-03-18T21:43:39.578Z,4.42
2019-03-18T21:46:10.208Z,4.42
2019-03-18T21:48:40.945Z,4.33
2019-03-18T21:51:11.514Z,4.38
2019-03-18T21:53:42.025Z,4.55
2019-03-18T21:56:12.881Z,4.43
2019-03-18T21:58:46.136Z,4.52
2019-03-18T22:01:17.012Z,4.48
2019-03-18T22:03:47.909Z,4.64
2019-03-18T22:06:18.798Z,4.64
2019-03-18T22:08:49.503Z,4.70
2019-03-18T22:11:20.443Z,4.60
2019-03-18T22:13:51.412Z,4.68
2019-03-18T22:16:22.447Z,4.66
2019-03-18T22:18:53.382Z,4.74
2019-03-18T22:21:24.378Z,4.56
2019-03-18T22:23:55.030Z,4.50
2019-03-18T22:26:25.846Z,4.60
2019-03-18T22:28:56.727Z,4.56
2019-03-18T22:31:27.611Z,4.53
2019-03-18T22:33:58.531Z,4.51
2019-03-18T22:36:29.386Z,4.40
2019-03-18T22:39:00.135Z,4.36
2019-03-18T22:41:30.865Z,4.47
2019-03-18T22:44:01.751Z,4.44
2019-03-18T22:46:32.288Z,4.49
2019-03-18T22:49:03.127Z,4.46
2019-03-18T22:51:34.011Z,4.55
2019-03-18T22:54:04.875Z,4.62
2019-03-18T22:56:35.739Z,4.57
2019-03-18T22:59:06.507Z,4.51
2019-03-18T23:01:37.474Z,4.46
2019-03-18T23:04:08.305Z,4.55
2019-03-18T23:06:39.185Z,4.54
2019-03-18T23:09:09.892Z,4.60
2019-03-18T23:11:40.736Z,4.67
2019-03-18T23:14:11.462Z,4.73
2019-03-18T23:16:42.501Z,4.60
2019-03-18T23:19:13.236Z,4.69
2019-03-18T23:21:44.047Z,4.63
2019-03-18T23:24:14.898Z,4.67
2019-03-18T23:26:45.947Z,4.72
2019-03-18T23:29:16.897Z,4.63
2019-03-18T23:31:49.258Z,4.66
2019-03-18T23:34:20.080Z,4.82
2019-03-18T23:36:51.038Z,4.69
2019-03-18T23:39:21.910Z,4.59
2019-03-18T23:41:52.693Z,4.59
2019-03-18T23:44:23.530Z,4.62
2019-03-18T23:46:53.934Z,4.58
2019-03-18T23:49:24.792Z,4.62
2019-03-18T23:51:55.620Z,4.66
2019-03-18T23:54:26.468Z,4.64
2019-03-18T23:56:57.202Z,4.60
2019-03-18T23:59:27.992Z,4.59
